Time;durP1;ratioP1;P1;durP2;ratioP2;P2;SDS_P1;SDS_P2;PMS_P1;PMS_P2;Temp;Humidity;BMP_temperature;BMP_pressure;BME280_temperature;BME280_humidity;BME280_pressure;Samples;Min_cycle;Max_cycle;Signal;HPM_P1;HPM_P2
2023/12/25 00:00:54;;;;;;;1.87;0.90;;;;;;;9.34;100.00;95056.06;7397693;19;20876;-88
2023/12/25 00:03:23;;;;;;;0.80;0.80;;;;;;;9.76;100.00;95114.41;7395244;19;20933;-88
2023/12/25 00:05:57;;;;;;;1.17;1.07;;;;;;;9.34;100.00;95064.69;7397769;19;20400;-88
2023/12/25 00:08:24;;;;;;;0.90;0.80;;;;;;;9.38;100.00;95065.56;7396962;19;20436;-87
2023/12/25 00:10:52;;;;;;;1.63;1.30;;;;;;;9.67;100.00;95116.31;7397110;19;20373;-88
2023/12/25 00:13:19;;;;;;;1.77;1.67;;;;;;;9.24;100.00;95060.59;7394977;19;20421;-88
2023/12/25 00:15:47;;;;;;;1.00;0.80;;;;;;;9.34;100.00;95072.53;7396674;19;20381;-88
2023/12/25 00:18:14;;;;;;;0.87;0.87;;;;;;;9.93;100.00;95182.38;7396466;19;20385;-87
2023/12/25 00:20:42;;;;;;;2.40;1.30;;;;;;;9.39;100.00;95076.81;7397041;19;20388;-87
2023/12/25 00:23:10;;;;;;;1.33;1.03;;;;;;;9.21;100.00;95071.72;7394334;19;20440;-90
2023/12/25 00:25:37;;;;;;;1.47;1.13;;;;;;;9.43;100.00;95107.25;7394240;19;20380;-88
2023/12/25 00:28:05;;;;;;;1.30;1.17;;;;;;;9.69;100.00;95162.06;7396844;19;20372;-88
2023/12/25 00:30:33;;;;;;;1.30;1.20;;;;;;;9.37;100.00;95107.78;7396525;19;20691;-86
2023/12/25 00:33:01;;;;;;;2.73;1.20;;;;;;;9.42;100.00;95120.69;7394550;19;20404;-87
2023/12/25 00:35:28;;;;;;;3.43;1.00;;;;;;;9.54;100.00;95128.59;7395844;19;20858;-87
2023/12/25 00:37:56;;;;;;;2.73;1.53;;;;;;;9.71;100.00;95148.69;7397647;19;20873;-88
2023/12/25 00:40:23;;;;;;;2.13;1.57;;;;;;;9.56;100.00;95129.03;7399837;19;20377;-88
2023/12/25 00:42:51;;;;;;;2.10;1.47;;;;;;;9.57;100.00;95133.19;7398075;19;20483;-88
2023/12/25 00:45:19;;;;;;;1.23;1.13;;;;;;;9.15;100.00;95054.66;7394886;19;20410;-88
2023/12/25 00:47:47;;;;;;;1.57;1.47;;;;;;;9.27;100.00;95082.75;7396999;19;20841;-88
2023/12/25 00:50:16;;;;;;;1.63;1.27;;;;;;;9.24;100.00;95078.16;7395966;19;20380;-88
2023/12/25 00:52:43;;;;;;;1.33;1.20;;;;;;;9.30;100.00;95108.28;7395052;19;20427;-88
2023/12/25 00:55:11;;;;;;;2.17;1.50;;;;;;;9.10;100.00;95077.63;7395486;19;20878;-88
2023/12/25 00:57:39;;;;;;;6.87;1.53;;;;;;;9.58;100.00;95133.97;7395712;19;20373;-89
2023/12/25 01:00:07;;;;;;;1.57;1.47;;;;;;;9.80;100.00;95180.81;7395431;19;20398;-88
2023/12/25 01:02:35;;;;;;;4.60;2.27;;;;;;;9.73;100.00;95188.41;7394066;19;20419;-88
2023/12/25 01:05:03;;;;;;;1.60;1.50;;;;;;;9.61;100.00;95152.44;7394756;19;20452;-89
2023/12/25 01:07:31;;;;;;;2.73;1.40;;;;;;;9.51;100.00;95124.00;7395229;19;20405;-88
2023/12/25 01:09:59;;;;;;;4.60;1.63;;;;;;;9.60;100.00;95131.81;7395050;19;20869;-88
2023/12/25 01:12:26;;;;;;;1.47;1.37;;;;;;;9.56;100.00;95118.56;7399313;19;20417;-89
2023/12/25 01:14:54;;;;;;;3.63;1.30;;;;;;;9.47;100.00;95121.28;7402671;19;20400;-88
2023/12/25 01:17:22;;;;;;;2.37;1.20;;;;;;;9.39;100.00;95116.84;7402578;19;20393;-89
2023/12/25 01:19:49;;;;;;;1.60;1.50;;;;;;;9.36;100.00;95116.72;7402128;19;20387;-88
2023/12/25 01:22:18;;;;;;;4.60;1.60;;;;;;;9.67;100.00;95179.97;7400610;19;20446;-88
2023/12/25 01:24:45;;;;;;;1.70;1.50;;;;;;;9.59;100.00;95161.72;7398825;19;20428;-88
2023/12/25 01:27:13;;;;;;;2.07;1.40;;;;;;;9.50;100.00;95172.25;7399549;19;20713;-89
2023/12/25 01:29:40;;;;;;;2.00;1.60;;;;;;;9.06;100.00;95095.84;7399216;19;20373;-89
2023/12/25 01:32:08;;;;;;;1.53;1.23;;;;;;;8.88;100.00;95063.75;7397955;19;20444;-89
2023/12/25 01:34:35;;;;;;;5.20;1.87;;;;;;;9.58;100.00;95184.53;7399190;19;20408;-89
2023/12/25 01:37:04;;;;;;;5.87;1.77;;;;;;;9.47;100.00;95154.53;7398783;19;20714;-88
2023/12/25 01:39:31;;;;;;;2.70;1.23;;;;;;;9.44;100.00;95135.00;7398819;19;20866;-88
2023/12/25 01:41:59;;;;;;;0.97;0.97;;;;;;;9.40;100.00;95149.03;7398300;19;20436;-88
2023/12/25 01:44:27;;;;;;;1.93;1.30;;;;;;;9.11;100.00;95100.88;7398668;19;20380;-89
2023/12/25 01:46:54;;;;;;;5.07;1.47;;;;;;;9.50;100.00;95159.16;7399550;19;20369;-88
2023/12/25 01:49:23;;;;;;;3.57;1.80;;;;;;;9.68;100.00;95189.34;7398659;19;20460;-88
2023/12/25 01:51:51;;;;;;;1.67;1.20;;;;;;;9.11;100.00;95090.41;7397777;19;20894;-89
2023/12/25 01:54:19;;;;;;;6.93;1.20;;;;;;;9.43;100.00;95133.44;7399225;19;20364;-88
2023/12/25 01:56:47;;;;;;;1.33;1.23;;;;;;;9.54;100.00;95141.69;7400338;19;20397;-88
2023/12/25 01:59:14;;;;;;;2.70;1.40;;;;;;;9.22;100.00;95093.41;7425947;19;20377;-89
2023/12/25 02:01:42;;;;;;;1.97;1.00;;;;;;;9.33;100.00;95122.59;7428957;19;20468;-88
2023/12/25 02:04:10;;;;;;;4.17;3.77;;;;;;;9.64;100.00;95164.91;7429794;19;20393;-88
2023/12/25 02:06:37;;;;;;;1.27;1.17;;;;;;;9.43;100.00;95124.81;7430638;19;20369;-87
2023/12/25 02:09:05;;;;;;;1.17;1.07;;;;;;;9.55;100.00;95151.84;7429439;19;20384;-88
2023/12/25 02:11:36;;;;;;;1.50;1.40;;;;;;;9.28;100.00;95120.94;7401190;19;20413;-88
2023/12/25 02:14:04;;;;;;;3.20;1.50;;;;;;;9.47;100.00;95150.06;7399160;19;20377;-88
2023/12/25 02:16:32;;;;;;;2.03;1.50;;;;;;;9.51;100.00;95144.97;7398088;19;20381;-89
2023/12/25 02:19:00;;;;;;;1.80;1.23;;;;;;;9.32;100.00;95102.75;7398257;19;20384;-88
2023/12/25 02:21:28;;;;;;;3.00;1.23;;;;;;;9.34;100.00;95119.66;7397460;19;20417;-88
2023/12/25 02:24:31;;;;;;;1.70;1.60;;;;;;;9.29;100.00;95108.59;7431520;19;20774;-87
2023/12/25 02:27:12;;;;;;;4.30;1.60;;;;;;;9.38;100.00;95138.88;7432525;19;20427;-87
2023/12/25 02:29:53;;;;;;;6.13;1.77;;;;;;;9.07;100.00;95081.66;7432916;19;20384;-89
2023/12/25 02:32:34;;;;;;;1.70;1.10;;;;;;;10.08;100.00;95246.56;7430484;19;20412;-87
2023/12/25 02:35:15;;;;;;;1.80;1.30;;;;;;;9.47;100.00;95125.75;7432807;19;20399;-87
2023/12/25 02:37:57;;;;;;;1.10;1.00;;;;;;;9.44;100.00;95136.84;7432389;19;20415;-88
2023/12/25 02:40:41;;;;;;;1.40;1.17;;;;;;;9.34;100.00;95117.06;7432342;19;20377;-87
2023/12/25 02:43:23;;;;;;;2.47;1.20;;;;;;;9.55;100.00;95148.47;7429106;19;20751;-88
2023/12/25 02:46:04;;;;;;;4.40;0.97;;;;;;;9.18;100.00;95098.53;7434010;19;20383;-87
2023/12/25 02:48:45;;;;;;;2.33;1.13;;;;;;;9.51;100.00;95137.09;7434744;19;20359;-87
2023/12/25 02:51:26;;;;;;;2.50;1.17;;;;;;;9.43;100.00;95132.69;7431084;19;20408;-88
2023/12/25 02:54:08;;;;;;;4.97;1.27;;;;;;;9.66;100.00;95162.72;7433919;19;20388;-88
2023/12/25 02:56:49;;;;;;;1.50;1.00;;;;;;;10.07;100.00;95235.31;7431797;19;20396;-88
2023/12/25 02:59:31;;;;;;;1.83;1.33;;;;;;;9.62;100.00;95185.41;7432107;19;20420;-87
2023/12/25 03:02:12;;;;;;;1.53;1.07;;;;;;;9.43;100.00;95137.91;7430528;19;20447;-88
2023/12/25 03:04:54;;;;;;;1.83;1.10;;;;;;;9.25;100.00;95121.56;7431729;19;20502;-88
2023/12/25 03:07:35;;;;;;;1.30;1.03;;;;;;;9.47;100.00;95154.53;7431790;19;20387;-88
2023/12/25 03:10:17;;;;;;;1.83;1.30;;;;;;;9.30;100.00;95136.31;7431232;19;20690;-88
2023/12/25 03:12:59;;;;;;;1.53;1.13;;;;;;;9.43;100.00;95161.50;7428379;19;20469;-88
2023/12/25 03:15:40;;;;;;;1.43;1.10;;;;;;;9.58;100.00;95171.41;7431194;19;20384;-87
2023/12/25 03:18:21;;;;;;;1.27;1.00;;;;;;;9.31;100.00;95130.78;7431432;19;20393;-88
2023/12/25 03:21:02;;;;;;;4.13;1.60;;;;;;;9.28;100.00;95125.41;7430313;19;20380;-87
2023/12/25 03:23:44;;;;;;;1.50;1.23;;;;;;;9.25;100.00;95106.63;7428036;19;20743;-88
2023/12/25 03:26:25;;;;;;;1.70;1.20;;;;;;;9.27;100.00;95108.16;7430507;19;20383;-87
2023/12/25 03:29:06;;;;;;;1.50;1.07;;;;;;;9.35;100.00;95120.44;7432329;19;20375;-88
2023/12/25 03:31:47;;;;;;;0.80;0.80;;;;;;;9.07;100.00;95081.66;7429808;19;20496;-88
2023/12/25 03:34:28;;;;;;;5.53;2.30;;;;;;;9.41;100.00;95142.72;7414742;19;20847;-87
2023/12/25 03:37:09;;;;;;;1.30;1.20;;;;;;;9.32;100.00;95134.16;7401561;19;20404;-87
2023/12/25 03:39:51;;;;;;;2.00;1.27;;;;;;;9.18;100.00;95122.09;7401289;19;20398;-87
2023/12/25 03:42:34;;;;;;;1.20;1.10;;;;;;;9.01;100.00;95106.47;7399805;19;20774;-87
2023/12/25 03:45:15;;;;;;;2.03;1.30;;;;;;;9.46;100.00;95166.88;7401322;19;20389;-87
2023/12/25 03:47:56;;;;;;;2.00;1.10;;;;;;;9.47;100.00;95168.41;7401563;19;20383;-87
2023/12/25 03:50:37;;;;;;;1.53;1.43;;;;;;;9.43;100.00;95175.34;7401384;19;20388;-87
2023/12/25 03:53:18;;;;;;;2.13;1.00;;;;;;;8.86;100.00;95109.63;7399169;19;20420;-87
2023/12/25 03:56:04;;;;;;;5.40;1.40;;;;;;;9.16;100.00;95134.69;7401766;19;20380;-87
2023/12/25 03:58:45;;;;;;;1.90;1.07;;;;;;;9.40;100.00;95168.13;7400970;19;20373;-87
2023/12/25 04:01:26;;;;;;;1.93;1.10;;;;;;;9.56;100.00;95205.00;7401178;19;20424;-87
2023/12/25 04:04:08;;;;;;;3.33;1.33;;;;;;;9.19;100.00;95141.19;7399091;19;20389;-87
2023/12/25 04:06:49;;;;;;;2.70;1.20;;;;;;;9.20;100.00;95135.63;7400982;19;20381;-87
2023/12/25 04:09:30;;;;;;;1.90;1.10;;;;;;;9.58;100.00;95181.13;7400564;19;20704;-87
2023/12/25 04:12:11;;;;;;;1.20;1.10;;;;;;;9.30;100.00;95149.41;7401201;19;20407;-87
2023/12/25 04:14:52;;;;;;;2.73;2.50;;;;;;;9.54;100.00;95176.50;7400196;19;20408;-87
2023/12/25 04:17:34;;;;;;;1.40;1.30;;;;;;;9.25;100.00;95111.88;7400582;19;20376;-87
2023/12/25 04:20:15;;;;;;;1.77;1.67;;;;;;;9.53;100.00;95161.88;7400065;19;20376;-87
2023/12/25 04:22:57;;;;;;;4.47;1.33;;;;;;;9.08;100.00;95095.50;7397646;19;20553;-87
2023/12/25 04:25:38;;;;;;;2.97;1.27;;;;;;;9.27;100.00;95127.25;7400306;19;20384;-87
2023/12/25 04:28:19;;;;;;;1.40;1.30;;;;;;;9.51;100.00;95145.72;7399696;19;20395;-87
2023/12/25 04:31:00;;;;;;;3.00;1.70;;;;;;;9.21;100.00;95126.69;7400249;19;20380;-87
2023/12/25 04:33:42;;;;;;;3.60;1.17;;;;;;;9.16;100.00;95132.09;7399635;19;20930;-90
2023/12/25 04:36:23;;;;;;;2.40;1.77;;;;;;;9.57;100.00;95188.19;7399886;19;20398;-87
2023/12/25 04:39:05;;;;;;;1.30;1.20;;;;;;;9.55;100.00;95196.38;7399813;19;20369;-88
2023/12/25 04:41:46;;;;;;;1.27;1.17;;;;;;;9.28;100.00;95125.41;7398499;19;20920;-87
2023/12/25 04:44:27;;;;;;;1.40;1.30;;;;;;;9.45;100.00;95151.50;7399774;19;20376;-87
2023/12/25 04:47:09;;;;;;;1.37;1.27;;;;;;;9.33;100.00;95130.47;7396779;19;20369;-87
2023/12/25 04:49:50;;;;;;;1.57;1.13;;;;;;;9.60;100.00;95173.72;7399582;19;20869;-87
2023/12/25 04:52:31;;;;;;;1.57;1.47;;;;;;;9.62;100.00;95182.03;7398021;19;20421;-87
2023/12/25 04:55:12;;;;;;;1.90;1.37;;;;;;;9.40;100.00;95146.41;7399285;19;20376;-87
2023/12/25 04:57:54;;;;;;;5.53;1.83;;;;;;;9.56;100.00;95173.56;7399937;19;20376;-87
2023/12/25 05:00:35;;;;;;;4.93;1.97;;;;;;;8.98;100.00;95080.19;7398955;19;20864;-87
2023/12/25 05:03:16;;;;;;;1.33;1.23;;;;;;;9.51;100.00;95171.91;7397223;19;20729;-87
2023/12/25 05:05:59;;;;;;;1.60;1.30;;;;;;;9.19;100.00;95125.47;7398890;19;20448;-88
2023/12/25 05:08:40;;;;;;;1.83;1.50;;;;;;;9.16;100.00;95118.22;7398919;19;20384;-87
2023/12/25 05:11:23;;;;;;;1.40;1.30;;;;;;;9.57;100.00;95174.34;7397931;19;20902;-87
2023/12/25 05:14:06;;;;;;;1.83;1.40;;;;;;;9.17;100.00;95106.69;7398350;19;20388;-87
2023/12/25 05:16:47;;;;;;;6.13;1.87;;;;;;;9.41;100.00;95153.19;7398038;19;20380;-87
2023/12/25 05:19:28;;;;;;;1.77;1.67;;;;;;;9.62;100.00;95188.03;7397906;19;20396;-87
2023/12/25 05:22:09;;;;;;;1.50;1.20;;;;;;;9.29;100.00;95129.53;7396916;19;20397;-87
2023/12/25 05:24:50;;;;;;;1.90;1.03;;;;;;;9.17;100.00;95109.28;7398670;19;20365;-87
2023/12/25 05:27:31;;;;;;;2.30;1.10;;;;;;;9.28;100.00;95131.41;7398214;19;20369;-87
2023/12/25 05:30:13;;;;;;;2.90;1.00;;;;;;;9.33;100.00;95112.91;7398481;19;20379;-88
2023/12/25 05:32:54;;;;;;;2.77;1.33;;;;;;;9.89;100.00;95218.19;7396347;19;20433;-87
2023/12/25 05:35:35;;;;;;;1.57;1.10;;;;;;;8.97;100.00;95073.41;7398115;19;20365;-88
2023/12/25 05:38:16;;;;;;;2.07;1.30;;;;;;;9.61;100.00;95172.63;7397509;19;20373;-87
2023/12/25 05:40:57;;;;;;;18.10;1.77;;;;;;;9.69;100.00;95193.50;7399255;19;20906;-87
2023/12/25 05:43:38;;;;;;;1.93;1.30;;;;;;;9.41;100.00;95145.34;7395888;19;20889;-87
2023/12/25 05:46:19;;;;;;;2.03;1.40;;;;;;;9.66;100.00;95161.94;7397710;19;20365;-88
2023/12/25 05:49:01;;;;;;;1.13;0.93;;;;;;;9.89;100.00;95193.84;7397210;19;20373;-88
2023/12/25 05:51:43;;;;;;;1.93;1.20;;;;;;;9.66;100.00;95183.69;7397404;19;20396;-87
2023/12/25 05:54:24;;;;;;;2.37;0.90;;;;;;;9.35;100.00;95204.22;7397802;19;20384;-87
2023/12/25 05:57:05;;;;;;;3.23;1.30;;;;;;;10.07;100.00;95258.91;7396586;19;20869;-87
2023/12/25 05:59:47;;;;;;;1.30;1.20;;;;;;;9.56;100.00;95191.91;7397682;19;20389;-88
2023/12/25 06:02:38;;;;;;;6.60;1.83;;;;;;;9.87;100.00;95248.44;7397691;19;20397;-88
2023/12/25 06:05:19;;;;;;;4.80;1.73;;;;;;;9.72;100.00;95240.06;7398176;19;20380;-89
2023/12/25 06:08:00;;;;;;;2.03;1.73;;;;;;;9.07;100.00;95128.00;7397247;19;20880;-87
2023/12/25 06:10:41;;;;;;;1.40;1.30;;;;;;;8.61;100.00;95051.91;7396928;19;20846;-87
2023/12/25 06:13:23;;;;;;;1.67;1.20;;;;;;;9.04;100.00;95100.63;7394681;19;20404;-88
2023/12/25 06:16:04;;;;;;;5.33;1.83;;;;;;;9.04;100.00;95118.94;7397134;19;20395;-88
2023/12/25 06:18:46;;;;;;;3.67;1.33;;;;;;;9.10;100.00;95138.59;7396544;19;20357;-87
2023/12/25 06:21:27;;;;;;;1.70;1.60;;;;;;;9.11;100.00;95108.72;7395845;19;20391;-88
2023/12/25 06:24:08;;;;;;;1.17;1.07;;;;;;;9.57;100.00;95190.81;7394363;19;20437;-88
2023/12/25 06:26:49;;;;;;;2.40;1.50;;;;;;;9.51;100.00;95171.91;7397901;19;20686;-88
2023/12/25 06:29:30;;;;;;;2.20;1.33;;;;;;;9.76;100.00;95212.13;7396078;19;20388;-88
2023/12/25 06:32:13;;;;;;;2.57;2.37;;;;;;;9.81;100.00;95217.16;7395021;19;20401;-88
2023/12/25 06:34:54;;;;;;;2.30;1.30;;;;;;;9.43;100.00;95161.50;7396013;19;20373;-88
2023/12/25 06:37:35;;;;;;;1.93;1.30;;;;;;;9.47;100.00;95173.66;7397688;19;20873;-87
2023/12/25 06:40:16;;;;;;;1.20;0.93;;;;;;;9.54;100.00;95192.22;7395904;19;20408;-88
2023/12/25 06:42:57;;;;;;;1.60;1.10;;;;;;;9.46;100.00;95160.88;7394294;19;20790;-88
2023/12/25 06:45:38;;;;;;;1.63;1.50;;;;;;;9.43;100.00;95164.09;7397508;19;20383;-88
2023/12/25 06:48:19;;;;;;;3.03;1.87;;;;;;;9.40;100.00;95165.50;7395755;19;20400;-88
2023/12/25 06:51:01;;;;;;;3.40;1.27;;;;;;;9.42;100.00;95162.56;7395350;19;20457;-87
2023/12/25 06:53:42;;;;;;;1.40;1.30;;;;;;;9.63;100.00;95197.41;7403340;19;20377;-87
2023/12/25 06:56:23;;;;;;;1.27;1.17;;;;;;;9.65;100.00;95213.59;7427228;19;20369;-87
2023/12/25 06:59:04;;;;;;;1.83;1.10;;;;;;;9.50;100.00;95191.34;7426344;19;20380;-88
2023/12/25 07:01:45;;;;;;;1.10;0.97;;;;;;;9.85;100.00;95248.75;7426203;19;20424;-88
2023/12/25 07:04:27;;;;;;;1.27;1.10;;;;;;;9.50;100.00;95199.19;7426568;19;20387;-87
2023/12/25 07:07:09;;;;;;;3.40;1.10;;;;;;;9.96;100.00;95264.84;7425342;19;20392;-88
2023/12/25 07:09:51;;;;;;;3.03;1.07;;;;;;;10.16;100.00;95285.06;7400547;19;20376;-87
2023/12/25 07:12:32;;;;;;;1.23;1.13;;;;;;;9.41;100.00;95198.47;7402028;19;20416;-88
2023/12/25 07:15:13;;;;;;;1.53;1.00;;;;;;;9.75;100.00;95242.03;7403417;19;20364;-87
2023/12/25 07:17:54;;;;;;;1.20;1.10;;;;;;;9.49;100.00;95216.00;7402917;19;20415;-88
2023/12/25 07:20:35;;;;;;;1.40;1.30;;;;;;;9.53;100.00;95209.03;7402085;19;20389;-88
2023/12/25 07:23:18;;;;;;;1.30;1.23;;;;;;;9.52;100.00;95219.81;7398990;19;20961;-87
2023/12/25 07:25:59;;;;;;;1.50;1.00;;;;;;;10.12;100.00;95323.50;7401812;19;20401;-88
2023/12/25 07:28:41;;;;;;;1.10;1.00;;;;;;;9.54;100.00;95230.75;7401664;19;20392;-88
2023/12/25 07:31:22;;;;;;;1.23;1.10;;;;;;;9.36;100.00;95208.38;7400918;19;20694;-88
2023/12/25 07:34:03;;;;;;;1.00;1.00;;;;;;;10.02;100.00;95292.44;7401550;19;20391;-96
2023/12/25 07:36:44;;;;;;;2.10;1.90;;;;;;;9.54;100.00;95228.13;7402221;19;20368;-90
2023/12/25 07:39:26;;;;;;;1.73;1.63;;;;;;;9.52;100.00;95243.41;7402023;19;20396;-91
2023/12/25 07:42:07;;;;;;;1.27;1.17;;;;;;;9.79;100.00;95284.06;7400545;19;20404;-90
2023/12/25 07:44:48;;;;;;;2.00;1.90;;;;;;;9.36;100.00;95221.47;7402500;19;20381;-89
2023/12/25 07:47:29;;;;;;;1.63;1.23;;;;;;;9.95;100.00;95310.50;7401749;19;20380;-90
2023/12/25 07:50:10;;;;;;;1.10;1.00;;;;;;;9.43;100.00;95219.88;7403644;19;20873;-89
2023/12/25 07:52:52;;;;;;;1.00;0.90;;;;;;;9.57;100.00;95247.69;7400339;19;20388;-89
2023/12/25 07:55:35;;;;;;;0.80;0.80;;;;;;;9.62;100.00;95252.75;7402663;19;20377;-90
2023/12/25 07:58:16;;;;;;;1.50;1.40;;;;;;;9.81;100.00;95289.78;7404257;19;20361;-90
2023/12/25 08:00:57;;;;;;;1.37;1.27;;;;;;;9.68;100.00;95249.63;7403649;19;20473;-90
2023/12/25 08:03:38;;;;;;;1.13;0.80;;;;;;;9.46;100.00;95221.09;7400230;19;20881;-90
2023/12/25 08:06:20;;;;;;;1.20;1.10;;;;;;;9.91;100.00;95310.38;7401713;19;20372;-90
2023/12/25 08:09:01;;;;;;;4.90;1.67;;;;;;;9.71;100.00;95267.34;7402223;19;20384;-90
2023/12/25 08:11:42;;;;;;;1.00;1.00;;;;;;;9.82;100.00;95294.69;7400421;19;20420;-89
2023/12/25 08:14:23;;;;;;;1.27;0.90;;;;;;;9.95;100.00;95292.91;7401852;19;20365;-90
2023/12/25 08:17:05;;;;;;;0.80;0.80;;;;;;;10.11;100.00;95320.13;7402125;19;20373;-89
2023/12/25 08:19:46;;;;;;;1.40;1.20;;;;;;;9.79;100.00;95284.06;7401348;19;20411;-90
2023/12/25 08:22:27;;;;;;;1.73;1.20;;;;;;;9.72;100.00;95265.50;7399535;19;20458;-90
2023/12/25 08:25:08;;;;;;;1.20;1.10;;;;;;;10.07;100.00;95327.06;7401500;19;20395;-90
2023/12/25 08:27:49;;;;;;;1.20;1.10;;;;;;;9.59;100.00;95253.38;7401029;19;20361;-90
2023/12/25 08:30:30;;;;;;;1.40;1.23;;;;;;;9.91;100.00;95314.84;7400855;19;20390;-90
2023/12/25 08:33:12;;;;;;;1.00;0.87;;;;;;;9.57;100.00;95266.78;7398579;19;20699;-92
2023/12/25 08:35:53;;;;;;;0.70;0.70;;;;;;;9.90;100.00;95316.69;7400327;19;20738;-90
2023/12/25 08:38:35;;;;;;;1.40;1.20;;;;;;;9.63;100.00;95289.09;7400448;19;20682;-90
2023/12/25 08:41:16;;;;;;;3.13;0.97;;;;;;;9.89;100.00;95317.03;7400376;19;20389;-89
2023/12/25 08:43:58;;;;;;;1.90;1.23;;;;;;;9.79;100.00;95297.19;7398154;19;20380;-90
2023/12/25 08:46:40;;;;;;;1.00;0.90;;;;;;;10.00;100.00;95344.41;7400061;19;20876;-89
2023/12/25 08:49:21;;;;;;;1.30;1.07;;;;;;;10.32;100.00;95382.28;7399728;19;20427;-90
2023/12/25 08:52:03;;;;;;;1.63;1.37;;;;;;;9.64;100.00;95277.53;7399431;19;20385;-90
2023/12/25 08:54:45;;;;;;;1.10;1.00;;;;;;;9.76;100.00;95303.06;7399795;19;20364;-90
2023/12/25 08:57:26;;;;;;;1.20;1.07;;;;;;;9.66;100.00;95283.22;7399737;19;20420;-90
2023/12/25 09:00:10;;;;;;;1.60;1.10;;;;;;;9.51;100.00;95291.63;7400098;19;20385;-90
2023/12/25 09:02:51;;;;;;;1.00;0.80;;;;;;;9.91;100.00;95351.53;7398572;19;20416;-90
2023/12/25 09:05:32;;;;;;;2.23;1.60;;;;;;;9.75;100.00;95325.88;7400212;19;20415;-90
2023/12/25 09:08:13;;;;;;;0.87;0.83;;;;;;;10.03;100.00;95378.59;7399385;19;20401;-90
2023/12/25 09:10:55;;;;;;;1.50;1.40;;;;;;;9.42;100.00;95285.66;7400370;19;20385;-90
2023/12/25 09:13:36;;;;;;;0.83;0.83;;;;;;;9.87;100.00;95351.41;7399491;19;20369;-89
2023/12/25 09:16:17;;;;;;;1.10;0.80;;;;;;;9.83;100.00;95335.53;7399921;19;20412;-90
2023/12/25 09:18:58;;;;;;;1.43;1.33;;;;;;;9.72;100.00;95312.66;7398702;19;20384;-89
2023/12/25 09:21:39;;;;;;;1.23;0.93;;;;;;;10.05;100.00;95354.69;7398864;19;20410;-90
2023/12/25 09:24:22;;;;;;;1.13;1.03;;;;;;;9.99;100.00;95364.59;7396515;19;20440;-90
2023/12/25 09:27:03;;;;;;;2.60;1.10;;;;;;;10.16;100.00;95383.94;7398767;19;20673;-89
2023/12/25 09:29:44;;;;;;;1.17;0.83;;;;;;;10.04;100.00;95371.50;7398469;19;20377;-90
2023/12/25 09:32:27;;;;;;;1.27;1.17;;;;;;;9.94;100.00;95351.66;7395576;19;20719;-90
2023/12/25 09:35:09;;;;;;;31.10;19.20;;;;;;;10.00;100.00;95363.53;7398898;19;20429;-90
2023/12/25 09:37:50;;;;;;;1.60;0.90;;;;;;;10.07;100.00;95371.63;7398829;19;20876;-90
2023/12/25 09:40:32;;;;;;;4.47;3.33;;;;;;;9.75;100.00;95323.25;7398705;19;20376;-90
2023/12/25 09:43:13;;;;;;;1.00;1.00;;;;;;;10.02;100.00;95352.72;7398372;19;20398;-90
2023/12/25 09:45:56;;;;;;;25.90;16.17;;;;;;;10.01;100.00;95356.41;7398555;19;20393;-90
2023/12/25 09:48:38;;;;;;;22.97;12.73;;;;;;;9.61;100.00;95293.13;7397833;19;20474;-90
2023/12/25 09:51:22;;;;;;;2.07;1.97;;;;;;;10.20;100.00;95393.47;7397757;19;20372;-90
2023/12/25 09:54:03;;;;;;;0.83;0.83;;;;;;;9.75;100.00;95317.25;7397630;19;20420;-89
2023/12/25 09:56:44;;;;;;;4.33;3.93;;;;;;;10.06;100.00;95385.84;7398335;19;20413;-90
2023/12/25 09:59:29;;;;;;;1.70;1.60;;;;;;;9.98;100.00;95363.06;7397969;19;20399;-90
2023/12/25 10:02:13;;;;;;;4.47;1.57;;;;;;;9.62;100.00;95299.91;7397770;19;20431;-90
2023/12/25 10:04:55;;;;;;;1.67;1.10;;;;;;;9.45;100.00;95283.19;7398466;19;20656;-90
2023/12/25 10:07:36;;;;;;;1.10;1.00;;;;;;;9.60;100.00;95294.97;7397607;19;20456;-90
2023/12/25 10:10:18;;;;;;;2.80;1.17;;;;;;;10.06;100.00;95358.84;7398247;19;20460;-90
2023/12/25 10:12:59;;;;;;;0.90;0.90;;;;;;;9.70;100.00;95297.22;7396398;19;20949;-89
2023/12/25 10:15:40;;;;;;;1.17;1.07;;;;;;;9.80;100.00;95317.81;7397257;19;20385;-90
2023/12/25 10:18:22;;;;;;;2.17;1.57;;;;;;;10.03;100.00;95341.91;7397454;19;20854;-90
2023/12/25 10:21:04;;;;;;;2.20;1.37;;;;;;;9.46;100.00;95255.91;7397337;19;20408;-89
2023/12/25 10:23:47;;;;;;;2.10;1.70;;;;;;;9.74;100.00;95319.09;7396332;19;20432;-89
2023/12/25 10:26:28;;;;;;;0.90;0.90;;;;;;;9.75;100.00;95312.00;7397035;19;20381;-90
2023/12/25 10:29:10;;;;;;;1.00;0.90;;;;;;;9.67;100.00;95303.09;7397060;19;20392;-89
2023/12/25 10:31:51;;;;;;;2.17;1.63;;;;;;;9.87;100.00;95316.56;7396001;19;20428;-89
2023/12/25 10:34:33;;;;;;;2.93;1.83;;;;;;;9.92;100.00;95335.50;7396408;19;20893;-90
2023/12/25 10:37:15;;;;;;;1.67;1.27;;;;;;;9.61;100.00;95304.38;7396878;19;20552;-90
2023/12/25 10:39:57;;;;;;;0.77;0.70;;;;;;;9.60;100.00;95294.22;7397918;19;20381;-90
2023/12/25 10:42:38;;;;;;;2.40;1.63;;;;;;;9.74;100.00;95326.97;7395998;19;20428;-90
2023/12/25 10:45:25;;;;;;;2.03;1.63;;;;;;;9.73;100.00;95325.44;7401721;19;20388;-90
2023/12/25 10:48:09;;;;;;;2.23;2.03;;;;;;;9.51;100.00;95296.88;7404394;19;20373;-89
2023/12/25 10:50:52;;;;;;;1.90;1.40;;;;;;;9.81;100.00;95350.03;7403780;19;20381;-90
2023/12/25 10:53:34;;;;;;;2.80;1.57;;;;;;;9.45;100.00;95306.00;7403702;19;20388;-90
2023/12/25 10:56:19;;;;;;;0.80;0.80;;;;;;;9.30;100.00;95306.50;7403540;19;20480;-90
2023/12/25 10:59:20;;;;;;;1.30;1.20;;;;;;;9.68;100.00;95349.19;7403845;19;20384;-89
2023/12/25 11:02:09;;;;;;;0.80;0.80;;;;;;;9.75;100.00;95367.03;7402259;19;20870;-90
2023/12/25 11:04:50;;;;;;;1.10;1.00;;;;;;;9.58;100.00;95323.34;7403326;19;20444;-90
2023/12/25 11:07:31;;;;;;;0.90;0.90;;;;;;;9.40;100.00;95311.41;7403319;19;20385;-89
2023/12/25 11:10:13;;;;;;;0.80;0.80;;;;;;;9.39;100.00;95317.72;7404884;19;20385;-92
2023/12/25 11:12:56;;;;;;;1.43;0.93;;;;;;;9.87;100.00;95387.34;7401652;19;20479;-90
2023/12/25 11:15:38;;;;;;;1.63;1.37;;;;;;;9.47;100.00;95324.78;7403340;19;20696;-88
2023/12/25 11:18:20;;;;;;;1.03;0.97;;;;;;;9.37;100.00;95302.31;7403162;19;20381;-90
2023/12/25 11:21:07;;;;;;;1.00;0.90;;;;;;;9.48;100.00;95336.78;7402720;19;20388;-89
2023/12/25 11:23:49;;;;;;;1.30;1.13;;;;;;;9.04;100.00;95268.13;7400743;19;20410;-90
2023/12/25 11:26:31;;;;;;;3.10;1.50;;;;;;;9.37;100.00;95312.78;7402922;19;20365;-89
2023/12/25 11:29:12;;;;;;;0.83;0.83;;;;;;;9.35;100.00;95320.19;7409028;19;20365;-94
2023/12/25 11:31:54;;;;;;;1.87;1.77;;;;;;;9.06;100.00;95270.41;7401797;19;20693;-90
2023/12/25 11:34:39;;;;;;;2.80;1.10;;;;;;;9.09;100.00;95278.41;7402648;19;20392;-90
2023/12/25 11:37:20;;;;;;;1.03;0.93;;;;;;;9.76;100.00;95381.66;7402352;19;20395;-90
2023/12/25 11:40:06;;;;;;;1.37;1.27;;;;;;;9.38;100.00;95310.94;7401885;19;20377;-90
2023/12/25 11:42:48;;;;;;;1.40;1.30;;;;;;;9.05;100.00;95272.25;7399939;19;20441;-89
2023/12/25 11:45:29;;;;;;;1.07;0.97;;;;;;;8.91;100.00;95250.75;7402247;19;20385;-89
2023/12/25 11:48:11;;;;;;;1.70;1.60;;;;;;;9.21;100.00;95290.84;7404239;19;20357;-89
2023/12/25 11:51:01;;;;;;;0.90;0.90;;;;;;;9.57;100.00;95347.22;7401944;19;20388;-89
2023/12/25 11:53:44;;;;;;;1.50;1.37;;;;;;;9.01;100.00;95253.03;7402107;19;20422;-89
2023/12/25 11:56:30;;;;;;;1.57;1.33;;;;;;;9.75;100.00;95359.19;7400149;19;20388;-89
2023/12/25 11:59:12;;;;;;;1.30;1.20;;;;;;;9.16;100.00;95278.66;7402418;19;20381;-89
2023/12/25 12:01:53;;;;;;;1.43;1.20;;;;;;;9.06;100.00;95278.28;7400361;19;20464;-89
2023/12/25 12:04:34;;;;;;;1.07;1.00;;;;;;;8.77;100.00;95226.63;7401265;19;20395;-90
2023/12/25 12:07:15;;;;;;;2.03;0.93;;;;;;;9.45;100.00;95313.84;7401425;19;20392;-89
2023/12/25 12:09:57;;;;;;;1.20;1.10;;;;;;;8.97;100.00;95238.28;7400833;19;20854;-89
2023/12/25 12:12:38;;;;;;;1.53;1.10;;;;;;;9.48;100.00;95324.47;7400029;19;20416;-89
2023/12/25 12:15:19;;;;;;;1.17;1.07;;;;;;;9.13;100.00;95262.84;7400851;19;20680;-89
2023/12/25 12:18:01;;;;;;;0.70;0.60;;;;;;;9.53;100.00;95328.75;7404555;19;20369;-89
2023/12/25 12:20:44;;;;;;;1.30;1.20;;;;;;;9.76;100.00;95350.22;7430328;19;20381;-90
2023/12/25 12:23:31;;;;;;;0.90;0.80;;;;;;;9.60;100.00;95315.94;7428768;19;20462;-89
2023/12/25 12:26:16;;;;;;;0.80;0.80;;;;;;;9.25;100.00;95270.78;7432014;19;20365;-88